Time;durP1;ratioP1;P1;durP2;ratioP2;P2;SDS_P1;SDS_P2;PMS_P1;PMS_P2;Temp;Humidity;BMP_temperature;BMP_pressure;BME280_temperature;BME280_humidity;BME280_pressure;Samples;Min_cycle;Max_cycle;Signal;HPM_P1;HPM_P2
2021/10/24 00:02:27;0.00;0.00;0.62;0.00;0.00;0.62;2.17;1.60;;;23.40;28.00;;;;;;2269742;61;20384;-60
2021/10/24 00:05:12;0.00;0.00;0.62;0.00;0.00;0.62;1.90;1.40;;;23.50;28.00;;;;;;2270145;61;20352;-61
2021/10/24 00:07:57;0.00;0.00;0.62;0.00;0.00;0.62;2.20;1.60;;;23.40;28.00;;;;;;2269900;61;20728;-59
2021/10/24 00:10:41;0.00;0.00;0.62;0.00;0.00;0.62;2.03;1.63;;;23.50;28.00;;;;;;2270056;61;20403;-62
2021/10/24 00:13:26;0.00;0.00;0.62;0.00;0.00;0.62;2.03;1.47;;;23.40;28.00;;;;;;2270009;61;20376;-61
2021/10/24 00:16:12;0.00;0.00;0.62;0.00;0.00;0.62;2.03;1.70;;;23.40;28.00;;;;;;2269855;61;20355;-60
2021/10/24 00:18:56;0.00;0.00;0.62;0.00;0.00;0.62;2.10;1.37;;;23.40;28.00;;;;;;2270029;61;20464;-61
2021/10/24 00:21:40;0.00;0.00;0.62;0.00;0.00;0.62;2.10;1.40;;;23.40;28.00;;;;;;2270353;61;20352;-61
2021/10/24 00:24:26;0.00;0.00;0.62;0.00;0.00;0.62;2.17;1.50;;;23.40;28.00;;;;;;2269486;61;20375;-59
2021/10/24 00:27:11;0.00;0.00;0.62;0.00;0.00;0.62;2.40;1.70;;;23.40;28.00;;;;;;2270056;61;20603;-60
2021/10/24 00:29:55;0.00;0.00;0.62;0.00;0.00;0.62;1.97;1.20;;;23.40;28.00;;;;;;2270217;61;20384;-61
2021/10/24 00:32:41;0.00;0.00;0.62;0.00;0.00;0.62;2.53;1.13;;;23.40;28.10;;;;;;2269946;61;20782;-61
2021/10/24 00:35:26;0.00;0.00;0.62;0.00;0.00;0.62;1.83;1.43;;;23.40;28.60;;;;;;2269597;61;20359;-61
2021/10/24 00:38:11;0.00;0.00;0.62;0.00;0.00;0.62;2.20;1.60;;;23.40;28.10;;;;;;2269675;61;20743;-59
2021/10/24 00:40:56;0.00;0.00;0.62;0.00;0.00;0.62;1.97;1.30;;;23.40;28.10;;;;;;2270107;61;20419;-61
2021/10/24 00:43:40;0.00;0.00;0.62;0.00;0.00;0.62;1.63;1.20;;;23.40;28.20;;;;;;2270000;61;20644;-60
2021/10/24 00:46:25;0.00;0.00;0.62;0.00;0.00;0.62;1.90;1.40;;;23.40;28.10;;;;;;2269305;61;20367;-61
2021/10/24 00:49:12;0.00;0.00;0.62;0.00;0.00;0.62;2.07;1.20;;;23.40;28.20;;;;;;2269434;61;20376;-60
2021/10/24 00:51:38;0.00;0.00;0.62;0.00;0.00;0.62;1.80;1.30;;;23.40;28.20;;;;;;2270164;61;20349;-60
2021/10/24 00:54:24;0.00;0.00;0.62;0.00;0.00;0.62;1.63;1.13;;;23.40;28.20;;;;;;2269659;61;20372;-60
2021/10/24 00:57:10;0.00;0.00;0.62;0.00;0.00;0.62;1.60;1.27;;;23.40;28.10;;;;;;2269998;61;20570;-60
2021/10/24 00:59:54;0.00;0.00;0.62;0.00;0.00;0.62;1.83;1.20;;;23.40;28.10;;;;;;2269618;61;20379;-60
2021/10/24 01:02:39;0.00;0.00;0.62;0.00;0.00;0.62;2.80;1.23;;;23.40;28.20;;;;;;2269982;61;20636;-61
2021/10/24 01:05:25;0.00;0.00;0.62;0.00;0.00;0.62;1.70;1.20;;;23.40;28.70;;;;;;2269573;61;20473;-61
2021/10/24 01:08:11;0.00;0.00;0.62;0.00;0.00;0.62;2.93;1.53;;;23.40;28.20;;;;;;2269656;61;20364;-61
2021/10/24 01:10:56;0.00;0.00;0.62;0.00;0.00;0.62;1.60;1.20;;;23.40;28.20;;;;;;2269569;61;20356;-61
2021/10/24 01:13:40;0.00;0.00;0.62;0.00;0.00;0.62;2.00;1.43;;;23.40;28.20;;;;;;2269709;61;20392;-61
2021/10/24 01:16:26;0.00;0.00;0.62;0.00;0.00;0.62;1.90;1.20;;;23.40;28.20;;;;;;2269506;61;20759;-61
2021/10/24 01:19:13;0.00;0.00;0.62;0.00;0.00;0.62;1.97;1.40;;;23.40;28.20;;;;;;2269371;61;20380;-61
2021/10/24 01:22:00;0.00;0.00;0.62;0.00;0.00;0.62;1.70;1.30;;;23.40;28.20;;;;;;2269169;61;20403;-58
2021/10/24 01:24:44;0.00;0.00;0.62;0.00;0.00;0.62;1.60;1.13;;;23.40;28.20;;;;;;2269500;61;20360;-61
2021/10/24 01:27:30;0.00;0.00;0.62;0.00;0.00;0.62;2.17;1.23;;;23.40;28.20;;;;;;2269744;61;20425;-61
2021/10/24 01:30:15;0.00;0.00;0.62;0.00;0.00;0.62;1.80;1.20;;;23.40;28.20;;;;;;2269232;61;20383;-61
2021/10/24 01:33:01;0.00;0.00;0.62;0.00;0.00;0.62;1.60;1.10;;;23.40;28.20;;;;;;2269568;61;20767;-61
2021/10/24 01:35:52;0.00;0.00;0.62;0.00;0.00;0.62;2.07;1.33;;;23.40;28.20;;;;;;2269608;61;20364;-60
2021/10/24 01:38:43;0.00;0.00;0.62;0.00;0.00;0.62;1.93;1.13;;;23.40;28.20;;;;;;2269011;61;20360;-60
2021/10/24 01:41:28;0.00;0.00;0.62;0.00;0.00;0.62;2.00;1.50;;;23.40;28.20;;;;;;2269483;61;20682;-60
2021/10/24 01:44:14;0.00;0.00;0.62;0.00;0.00;0.62;2.80;1.53;;;23.40;28.10;;;;;;2269174;61;20364;-59
2021/10/24 01:46:59;0.00;0.00;0.62;0.00;0.00;0.62;2.93;1.50;;;23.40;28.00;;;;;;2269448;61;20360;-60
2021/10/24 01:49:51;0.00;0.00;0.62;0.00;0.00;0.62;2.30;1.67;;;23.40;28.00;;;;;;2269293;61;20492;-60
2021/10/24 01:52:41;0.00;0.00;0.62;0.00;0.00;0.62;3.50;1.90;;;23.40;27.90;;;;;;2269164;61;20447;-60
2021/10/24 01:55:27;0.00;0.00;0.62;0.00;0.00;0.62;3.40;1.97;;;23.40;27.90;;;;;;2269539;61;20432;-60
2021/10/24 01:58:12;0.00;0.00;0.62;0.00;0.00;0.62;2.70;2.00;;;23.40;27.80;;;;;;2269610;61;20360;-60
2021/10/24 02:00:58;0.00;0.00;0.62;0.00;0.00;0.62;3.33;1.90;;;23.40;27.80;;;;;;2269085;61;20371;-60
2021/10/24 02:03:51;0.00;0.00;0.62;0.00;0.00;0.62;3.90;2.20;;;23.30;27.70;;;;;;2269255;61;20387;-59
2021/10/24 02:06:54;0.00;0.00;0.62;0.00;0.00;0.62;2.97;2.40;;;23.30;27.70;;;;;;2269605;61;20418;-59
2021/10/24 02:09:40;0.00;0.00;0.62;0.00;0.00;0.62;4.20;2.17;;;23.30;27.60;;;;;;2269347;61;20407;-60
2021/10/24 02:12:26;0.00;0.00;0.62;0.00;0.00;0.62;5.07;2.77;;;23.30;27.60;;;;;;2269363;61;20577;-59
2021/10/24 02:15:17;0.00;0.00;0.62;0.00;0.00;0.62;3.40;2.10;;;23.20;27.50;;;;;;2268780;61;20360;-59
2021/10/24 02:18:02;0.00;0.00;0.62;0.00;0.00;0.62;3.37;2.30;;;23.20;27.50;;;;;;2269144;61;20406;-59
2021/10/24 02:20:50;0.00;0.00;0.62;0.00;0.00;0.62;4.07;2.20;;;23.20;27.50;;;;;;2269485;61;20453;-59
2021/10/24 02:23:35;0.00;0.00;0.62;0.00;0.00;0.62;2.97;2.30;;;23.20;27.50;;;;;;2269259;61;20759;-59
2021/10/24 02:26:20;0.00;0.00;0.62;0.00;0.00;0.62;2.90;2.50;;;23.20;27.40;;;;;;2269242;61;20708;-59
2021/10/24 02:29:06;0.00;0.00;0.62;0.00;0.00;0.62;2.50;1.80;;;23.10;27.30;;;;;;2269405;61;20768;-59
2021/10/24 02:31:51;0.00;0.00;0.62;0.00;0.00;0.62;2.80;2.13;;;23.10;27.30;;;;;;2269204;61;20394;-59
2021/10/24 02:34:56;0.00;0.00;0.62;0.00;0.00;0.62;3.10;2.10;;;23.10;27.30;;;;;;2269588;61;20644;-59
2021/10/24 02:37:47;0.00;0.00;0.62;0.00;0.00;0.62;3.10;2.23;;;23.10;27.30;;;;;;2268683;61;20759;-59
2021/10/24 02:40:35;0.00;0.00;0.62;0.00;0.00;0.62;3.23;2.47;;;23.00;27.20;;;;;;2269251;61;20470;-60
2021/10/24 02:43:22;0.00;0.00;0.62;0.00;0.00;0.62;4.97;2.40;;;23.00;27.20;;;;;;2269058;61;20352;-60
2021/10/24 02:46:12;0.00;0.00;0.62;0.00;0.00;0.62;3.57;2.40;;;23.00;27.20;;;;;;2269535;61;20440;-60
2021/10/24 02:48:57;0.00;0.00;0.62;0.00;0.00;0.62;5.07;2.90;;;23.00;27.20;;;;;;2266386;61;20392;-58
2021/10/24 02:51:42;0.00;0.00;0.62;0.00;0.00;0.62;2.80;2.23;;;22.90;27.10;;;;;;2268917;61;20392;-57
2021/10/24 02:54:27;0.00;0.00;0.62;0.00;0.00;0.62;3.03;2.30;;;22.90;27.10;;;;;;2269192;61;20380;-57
2021/10/24 02:57:13;0.00;0.00;0.62;0.00;0.00;0.62;5.10;2.97;;;22.90;27.10;;;;;;2269574;61;20376;-60
2021/10/24 02:59:58;0.00;0.00;0.62;0.00;0.00;0.62;3.00;2.27;;;22.80;27.00;;;;;;2269113;61;20396;-60
2021/10/24 03:02:45;0.00;0.00;0.62;0.00;0.00;0.62;2.83;2.27;;;22.80;27.00;;;;;;2269271;61;20364;-56
2021/10/24 03:05:30;0.00;0.00;0.62;0.00;0.00;0.62;5.40;2.43;;;22.80;27.00;;;;;;2269190;61;20589;-59
2021/10/24 03:08:17;0.00;0.00;0.62;0.00;0.00;0.62;3.97;2.47;;;22.80;27.00;;;;;;2269012;61;20440;-59
2021/10/24 03:11:02;0.00;0.00;0.62;0.00;0.00;0.62;3.03;2.33;;;22.70;26.90;;;;;;2269194;61;20360;-60
2021/10/24 03:13:47;0.00;0.00;0.62;0.00;0.00;0.62;6.23;2.60;;;22.70;26.90;;;;;;2268629;61;20449;-59
2021/10/24 03:16:33;0.00;0.00;0.62;0.00;0.00;0.62;3.40;2.30;;;22.70;26.90;;;;;;2269197;61;20426;-57
2021/10/24 03:19:20;0.00;0.00;0.62;0.00;0.00;0.62;5.00;2.77;;;22.70;26.90;;;;;;2269324;61;20429;-59
2021/10/24 03:22:12;0.00;0.00;0.62;0.00;0.00;0.62;4.37;2.60;;;22.60;26.90;;;;;;2268653;61;20654;-59
2021/10/24 03:24:56;0.00;0.00;0.62;0.00;0.00;0.62;3.67;2.43;;;22.60;26.90;;;;;;2269135;61;20390;-60
2021/10/24 03:27:41;0.00;0.00;0.62;0.00;0.00;0.62;3.77;2.60;;;22.60;26.90;;;;;;2269051;61;20364;-60
2021/10/24 03:30:26;0.00;0.00;0.62;0.00;0.00;0.62;4.80;2.70;;;22.50;26.80;;;;;;2269023;61;20384;-59
2021/10/24 03:33:10;0.00;0.00;0.62;0.00;0.00;0.62;3.00;2.50;;;22.50;26.80;;;;;;2269161;61;20454;-60
2021/10/24 03:35:56;0.00;0.00;0.62;0.00;0.00;0.62;4.70;2.40;;;22.50;26.80;;;;;;2268811;61;20391;-60
2021/10/24 03:38:42;0.00;0.00;0.62;0.00;0.00;0.62;4.67;3.40;;;22.40;26.70;;;;;;2268983;61;20363;-58
2021/10/24 03:41:28;0.00;0.00;0.62;0.00;0.00;0.62;5.03;3.07;;;22.40;26.70;;;;;;2269294;61;20372;-59
2021/10/24 03:44:12;0.00;0.00;0.62;0.00;0.00;0.62;3.63;2.73;;;22.40;26.70;;;;;;2268448;61;20395;-58
2021/10/24 03:46:57;0.00;0.00;0.62;0.00;0.00;0.62;4.10;2.33;;;22.40;26.70;;;;;;2269015;61;20592;-58
2021/10/24 03:49:42;0.00;0.00;0.62;0.00;0.00;0.62;2.87;2.20;;;22.40;26.70;;;;;;2269574;61;20419;-60
2021/10/24 03:52:27;0.00;0.00;0.62;0.00;0.00;0.62;3.03;2.17;;;22.30;26.70;;;;;;2269075;61;20366;-59
2021/10/24 03:55:12;0.00;0.00;0.62;0.00;0.00;0.62;3.27;2.60;;;22.30;26.70;;;;;;2269424;61;20361;-58
2021/10/24 03:57:57;0.00;0.00;0.62;0.00;0.00;0.62;4.30;2.90;;;22.30;26.70;;;;;;2268683;61;20716;-59
2021/10/24 04:00:43;0.00;0.00;0.62;0.00;0.00;0.62;3.77;2.93;;;22.30;26.70;;;;;;2269080;61;20383;-60
2021/10/24 04:03:32;0.00;0.00;0.62;0.00;0.00;0.62;3.00;2.53;;;22.20;26.60;;;;;;2269023;61;20360;-60
2021/10/24 04:06:17;0.00;0.00;0.62;0.00;0.00;0.62;3.90;3.00;;;22.20;26.60;;;;;;2268615;61;20353;-59
2021/10/24 04:09:03;0.00;0.00;0.62;0.00;0.00;0.62;5.03;3.17;;;22.20;26.60;;;;;;2268911;61;20687;-59
2021/10/24 04:11:48;0.00;0.00;0.62;0.00;0.00;0.62;3.90;2.57;;;22.10;26.50;;;;;;2269102;61;20819;-59
2021/10/24 04:14:32;0.00;0.00;0.62;0.00;0.00;0.62;3.60;3.00;;;22.10;26.50;;;;;;2268874;61;20423;-59
2021/10/24 04:17:17;0.00;0.00;0.62;0.00;0.00;0.62;2.70;2.40;;;22.10;26.50;;;;;;2269240;61;20363;-60
2021/10/24 04:20:09;0.00;0.00;0.62;0.00;0.00;0.62;5.57;3.03;;;22.10;26.60;;;;;;2268729;61;20387;-60
2021/10/24 04:22:54;0.00;0.00;0.62;0.00;0.00;0.62;5.53;2.73;;;22.10;26.60;;;;;;2266272;61;20350;-59
2021/10/24 04:25:42;0.00;0.00;0.62;0.00;0.00;0.62;5.97;2.90;;;22.10;26.60;;;;;;2269343;61;20432;-60
2021/10/24 04:28:27;0.00;0.00;0.62;0.00;0.00;0.62;3.77;2.67;;;22.00;26.50;;;;;;2269215;61;20494;-59
2021/10/24 04:31:12;0.00;0.00;0.62;0.00;0.00;0.62;3.10;2.63;;;22.00;26.60;;;;;;2269593;61;20391;-59
2021/10/24 04:33:56;0.00;0.00;0.62;0.00;0.00;0.62;3.10;2.50;;;22.00;26.60;;;;;;2269705;61;20430;-60
2021/10/24 04:36:41;0.00;0.00;0.62;0.00;0.00;0.62;4.57;2.40;;;21.90;26.50;;;;;;2269418;61;20674;-60
2021/10/24 04:39:25;0.00;0.00;0.62;0.00;0.00;0.62;3.40;3.00;;;21.90;26.50;;;;;;2269865;61;20414;-60
2021/10/24 04:42:12;0.00;0.00;0.62;0.00;0.00;0.62;2.70;2.37;;;21.90;26.50;;;;;;2269462;61;20410;-61
2021/10/24 04:44:57;0.00;0.00;0.62;0.00;0.00;0.62;4.53;2.70;;;21.90;26.50;;;;;;2269540;61;20357;-60
2021/10/24 04:47:42;0.00;0.00;0.62;0.00;0.00;0.62;3.83;2.50;;;21.90;26.60;;;;;;2269491;61;20964;-60
2021/10/24 04:50:27;0.00;0.00;0.62;0.00;0.00;0.62;3.80;2.90;;;21.80;26.50;;;;;;2269294;61;20448;-59
2021/10/24 04:53:11;0.00;0.00;0.62;0.00;0.00;0.62;3.73;2.70;;;21.80;26.50;;;;;;2269860;61;20779;-60
2021/10/24 04:55:57;0.00;0.00;0.62;0.00;0.00;0.62;5.43;2.83;;;21.80;26.50;;;;;;2269964;61;20394;-60
2021/10/24 04:58:43;0.00;0.00;0.62;0.00;0.00;0.62;2.97;2.40;;;21.80;26.50;;;;;;2269184;61;20364;-59
2021/10/24 05:01:28;0.00;0.00;0.62;0.00;0.00;0.62;3.80;2.60;;;21.80;26.50;;;;;;2269583;61;20355;-60
2021/10/24 05:04:13;0.00;0.00;0.62;0.00;0.00;0.62;3.63;2.10;;;21.80;26.50;;;;;;2269260;61;20429;-60
2021/10/24 05:06:58;0.00;0.00;0.62;0.00;0.00;0.62;4.57;2.97;;;21.70;26.50;;;;;;2269531;61;20399;-60
2021/10/24 05:09:43;0.00;0.00;0.62;0.00;0.00;0.62;5.30;2.90;;;21.70;26.50;;;;;;2269562;61;20426;-60
2021/10/24 05:12:27;0.00;0.00;0.62;0.00;0.00;0.62;3.80;2.90;;;21.70;26.50;;;;;;2269674;61;20436;-60
2021/10/24 05:15:19;0.00;0.00;0.62;0.00;0.00;0.62;3.30;2.63;;;21.70;26.50;;;;;;2269480;61;20384;-60
2021/10/24 05:18:03;0.00;0.00;0.62;0.00;0.00;0.62;4.00;2.73;;;21.70;26.50;;;;;;2270234;61;20733;-59
2021/10/24 05:20:50;0.00;0.00;0.62;0.00;0.00;0.62;5.93;2.97;;;21.60;26.50;;;;;;2269118;61;20400;-60
2021/10/24 05:23:35;0.00;0.00;0.62;0.00;0.00;0.62;3.37;2.20;;;21.60;26.50;;;;;;2269488;61;20395;-60
2021/10/24 05:26:20;0.00;0.00;0.62;0.00;0.00;0.62;2.87;2.50;;;21.60;26.50;;;;;;2269340;61;20758;-60
2021/10/24 05:29:04;0.00;0.00;0.62;0.00;0.00;0.62;3.63;2.17;;;21.60;26.50;;;;;;2269226;61;20433;-57
2021/10/24 05:31:50;0.00;0.00;0.62;0.00;0.00;0.62;3.07;2.70;;;21.60;26.50;;;;;;2269543;61;20359;-58
2021/10/24 05:34:37;0.00;0.00;0.62;0.00;0.00;0.62;6.17;3.20;;;21.60;26.50;;;;;;2269175;61;20598;-60
2021/10/24 05:37:26;0.00;0.00;0.62;0.00;0.00;0.62;3.07;2.10;;;21.50;26.40;;;;;;2269326;61;20402;-60
2021/10/24 05:40:13;0.00;0.00;0.62;0.00;0.00;0.62;3.43;2.73;;;21.50;26.50;;;;;;2269853;61;20374;-60
2021/10/24 05:43:03;0.00;0.00;0.62;0.00;0.00;0.62;3.50;2.50;;;21.50;26.40;;;;;;2268461;61;20581;-60
2021/10/24 05:45:49;0.00;0.00;0.62;0.00;0.00;0.62;2.63;2.20;;;21.50;26.40;;;;;;2270032;61;20344;-60
2021/10/24 05:48:35;0.00;0.00;0.62;0.00;0.00;0.62;6.17;2.93;;;21.50;26.40;;;;;;2268982;61;20371;-60
2021/10/24 05:51:26;0.00;0.00;0.62;0.00;0.00;0.62;3.67;2.77;;;21.50;26.40;;;;;;2269434;61;20716;-59
2021/10/24 05:54:12;0.00;0.00;0.62;0.00;0.00;0.62;5.37;3.00;;;21.40;26.30;;;;;;2269737;61;20412;-59
2021/10/24 05:57:00;0.00;0.00;0.62;0.00;0.00;0.62;4.43;2.90;;;21.40;26.30;;;;;;2269164;61;20383;-59
2021/10/24 06:00:06;0.00;0.00;0.62;0.00;0.00;0.62;4.23;2.40;;;21.40;26.30;;;;;;2270267;61;20599;-60
2021/10/24 06:03:04;0.00;0.00;0.62;0.00;0.00;0.62;3.27;2.50;;;21.40;26.30;;;;;;2269940;61;20360;-60
2021/10/24 06:06:19;0.00;0.00;0.62;0.00;0.00;0.62;2.87;2.40;;;21.30;26.30;;;;;;2269906;61;20410;-60
2021/10/24 06:09:04;0.00;0.00;0.62;0.00;0.00;0.62;5.23;2.97;;;21.30;26.40;;;;;;2270077;61;20384;-60
2021/10/24 06:11:59;0.00;0.00;0.62;0.00;0.00;0.62;3.23;2.37;;;21.30;26.40;;;;;;2269166;61;20454;-60
2021/10/24 06:14:44;0.00;0.00;0.62;0.00;0.00;0.62;4.70;2.83;;;21.30;26.40;;;;;;2269887;61;20599;-58
2021/10/24 06:17:30;0.00;0.00;0.62;0.00;0.00;0.62;3.87;2.50;;;21.30;26.40;;;;;;2269687;61;20428;-60
2021/10/24 06:20:16;0.00;0.00;0.62;0.00;0.00;0.62;5.13;2.63;;;21.20;26.30;;;;;;2269553;61;20379;-58
2021/10/24 06:23:03;0.00;0.00;0.62;0.00;0.00;0.62;3.53;2.63;;;21.20;26.40;;;;;;2269755;61;20395;-60
2021/10/24 06:25:47;0.00;0.00;0.62;0.00;0.00;0.62;3.47;2.20;;;21.20;26.40;;;;;;2269131;61;20721;-60
2021/10/24 06:28:33;0.00;0.00;0.62;0.00;0.00;0.62;4.03;3.13;;;21.20;26.40;;;;;;2269701;61;20360;-58
2021/10/24 06:31:17;0.00;0.00;0.62;0.00;0.00;0.62;3.13;2.33;;;21.20;26.30;;;;;;2269634;61;20364;-60
2021/10/24 06:34:21;0.00;0.00;0.62;0.00;0.00;0.62;4.13;2.63;;;21.10;26.30;;;;;;2269298;61;20423;-60
2021/10/24 06:37:38;0.00;0.00;0.62;0.00;0.00;0.62;4.47;2.70;;;21.10;26.30;;;;;;2269931;61;20360;-60
2021/10/24 06:40:24;0.00;0.00;0.62;0.00;0.00;0.62;4.00;2.80;;;21.10;26.30;;;;;;2269078;61;20427;-60
2021/10/24 06:43:14;0.00;0.00;0.62;0.00;0.00;0.62;2.63;2.30;;;21.10;26.30;;;;;;2269429;61;20430;-60
2021/10/24 06:46:18;0.00;0.00;0.62;0.00;0.00;0.62;4.43;2.70;;;21.10;26.30;;;;;;2269924;61;20396;-58
2021/10/24 06:49:37;0.00;0.00;0.62;0.00;0.00;0.62;4.47;2.60;;;21.00;26.30;;;;;;2269288;61;20445;-57
2021/10/24 06:52:44;0.00;0.00;0.62;0.00;0.00;0.62;4.00;2.90;;;21.10;26.40;;;;;;2269945;61;20402;-60
2021/10/24 06:56:09;0.00;0.00;0.62;0.00;0.00;0.62;2.87;2.17;;;21.00;26.30;;;;;;2260583;61;20626;-60
2021/10/24 06:59:12;0.00;0.00;0.62;0.00;0.00;0.62;3.93;2.60;;;21.00;26.30;;;;;;2260945;61;20386;-58
2021/10/24 07:02:20;0.00;0.00;0.62;0.00;0.00;0.62;3.03;2.57;;;21.00;26.40;;;;;;2269872;61;20359;-58
2021/10/24 07:05:24;0.00;0.00;0.62;0.00;0.00;0.62;4.87;3.30;;;21.00;26.40;;;;;;2269687;61;20758;-58
2021/10/24 07:08:17;0.00;0.00;0.62;0.00;0.00;0.62;3.40;2.47;;;21.00;26.40;;;;;;2269574;61;20617;-60
2021/10/24 07:11:02;0.00;0.00;0.62;0.00;0.00;0.62;4.03;2.53;;;21.00;26.40;;;;;;2269071;61;20747;-60
2021/10/24 07:13:48;0.00;0.00;0.62;0.00;0.00;0.62;3.43;2.67;;;20.90;26.30;;;;;;2269384;61;20392;-60
2021/10/24 07:16:33;0.00;0.00;0.62;0.00;0.00;0.62;3.47;2.80;;;20.90;26.30;;;;;;2269560;61;20399;-59
2021/10/24 07:19:19;0.00;0.00;0.62;0.00;0.00;0.62;5.10;2.70;;;20.90;26.30;;;;;;2268815;61;20411;-59
2021/10/24 07:22:03;0.00;0.00;0.62;0.00;0.00;0.62;3.80;2.67;;;20.90;26.30;;;;;;2269527;61;20815;-59
2021/10/24 07:25:14;0.00;0.00;0.62;0.00;0.00;0.62;3.30;2.57;;;20.90;26.30;;;;;;2269437;61;20384;-58
2021/10/24 07:28:00;0.00;0.00;0.62;0.00;0.00;0.62;4.43;3.27;;;20.80;26.20;;;;;;2269002;61;20386;-59
2021/10/24 07:30:46;0.00;0.00;0.62;0.00;0.00;0.62;4.07;2.70;;;20.80;26.30;;;;;;2269550;61;20782;-60
2021/10/24 07:33:30;0.00;0.00;0.62;0.00;0.00;0.62;3.63;2.90;;;20.90;26.30;;;;;;2268575;61;20425;-59
2021/10/24 07:36:27;0.00;0.00;0.62;0.00;0.00;0.62;6.93;2.93;;;20.80;26.20;;;;;;2269521;61;20391;-55
2021/10/24 07:39:12;0.00;0.00;0.62;0.00;0.00;0.62;4.20;2.90;;;20.80;26.30;;;;;;2269265;61;20623;-60
2021/10/24 07:41:57;0.00;0.00;0.62;0.00;0.00;0.62;5.07;2.70;;;20.80;26.20;;;;;;2269078;61;20360;-60
2021/10/24 07:44:43;0.00;0.00;0.62;0.00;0.00;0.62;3.20;2.57;;;20.70;26.20;;;;;;2269619;61;20372;-60
2021/10/24 07:47:30;0.00;0.00;0.62;0.00;0.00;0.62;5.13;2.57;;;20.70;26.20;;;;;;2268838;61;20376;-60
2021/10/24 07:50:15;0.00;0.00;0.62;0.00;0.00;0.62;4.53;2.40;;;20.70;26.20;;;;;;2269147;61;20376;-61
2021/10/24 07:53:02;0.00;0.00;0.62;0.00;0.00;0.62;6.97;2.83;;;20.70;26.30;;;;;;2269523;61;20371;-59
2021/10/24 07:55:53;0.00;0.00;0.62;0.00;0.00;0.62;5.53;2.93;;;20.70;26.30;;;;;;2268461;61;20648;-60
2021/10/24 07:58:54;0.00;0.00;0.62;0.00;0.00;0.62;4.10;3.17;;;20.70;26.30;;;;;;2269546;61;20381;-59
2021/10/24 08:01:40;0.00;0.00;0.62;0.00;0.00;0.62;3.37;2.90;;;20.70;26.30;;;;;;2269648;61;20437;-60
2021/10/24 08:04:29;0.00;0.00;0.62;0.00;0.00;0.62;5.30;2.77;;;20.70;26.30;;;;;;2269745;61;20360;-61
2021/10/24 08:07:14;0.00;0.00;0.62;0.00;0.00;0.62;5.07;2.87;;;20.70;26.30;;;;;;2270645;61;20383;-60
2021/10/24 08:09:59;0.00;0.00;0.62;0.00;0.00;0.62;7.10;3.10;;;20.70;26.30;;;;;;2269508;61;20413;-60
2021/10/24 08:12:44;0.00;0.00;0.62;0.00;0.00;0.62;6.00;2.90;;;20.70;26.40;;;;;;2269898;61;20352;-62
2021/10/24 08:15:30;0.00;0.00;0.62;0.00;0.00;0.62;4.33;3.13;;;20.70;26.40;;;;;;2270202;61;20415;-61
2021/10/24 08:18:16;0.00;0.00;0.62;0.00;0.00;0.62;5.43;2.70;;;20.70;26.30;;;;;;2269300;61;20360;-61
2021/10/24 08:21:32;0.00;0.00;0.62;0.00;0.00;0.62;3.77;3.00;;;20.70;26.40;;;;;;2268381;61;20424;-61
2021/10/24 08:24:19;0.00;0.00;0.62;0.00;0.00;0.62;3.80;2.67;;;20.70;26.30;;;;;;2269615;61;20355;-61
2021/10/24 08:27:10;0.00;0.00;0.62;0.00;0.00;0.62;6.83;3.67;;;20.70;26.50;;;;;;2269624;61;20405;-62
2021/10/24 08:29:37;0.00;0.00;0.62;0.00;0.00;0.62;5.30;2.63;;;20.80;26.50;;;;;;2269739;61;20365;-61
2021/10/24 08:32:44;0.00;0.00;0.62;0.00;0.00;0.62;6.17;2.73;;;20.80;26.50;;;;;;2269188;61;20359;-56
2021/10/24 08:35:30;0.00;0.00;0.62;0.00;0.00;0.62;2.90;2.50;;;20.80;26.50;;;;;;2269966;61;20473;-61
2021/10/24 08:38:17;0.00;0.00;0.62;0.00;0.00;0.62;3.20;2.40;;;20.80;26.50;;;;;;2270349;61;20583;-62
2021/10/24 08:41:03;0.00;0.00;0.62;0.00;0.00;0.62;4.20;2.43;;;20.90;26.70;;;;;;2269349;61;20993;-60
2021/10/24 08:43:49;0.00;0.00;0.62;0.00;0.00;0.62;5.87;2.60;;;20.90;26.70;;;;;;2269950;61;20356;-61
2021/10/24 08:46:35;0.00;0.00;0.62;0.00;0.00;0.62;4.57;2.87;;;21.00;26.70;;;;;;2269214;61;20395;-60
2021/10/24 08:49:21;0.00;0.00;0.62;0.00;0.00;0.62;3.23;2.30;;;21.00;26.70;;;;;;2269607;61;20763;-60
2021/10/24 08:52:07;0.00;0.00;0.62;0.00;0.00;0.62;2.70;2.07;;;21.10;26.80;;;;;;2270100;61;20363;-60
2021/10/24 08:54:54;0.00;0.00;0.62;0.00;0.00;0.62;4.97;3.13;;;21.10;26.70;;;;;;2269419;61;20798;-60
2021/10/24 08:57:39;0.00;0.00;0.62;0.00;0.00;0.62;5.27;3.00;;;21.10;26.70;;;;;;2270077;61;20414;-61
2021/10/24 09:00:23;0.00;0.00;0.62;0.00;0.00;0.62;5.50;3.20;;;21.20;26.70;;;;;;2270316;61;20399;-58
2021/10/24 09:03:00;0.00;0.00;0.62;0.00;0.00;0.62;4.90;2.70;;;21.20;26.70;;;;;;2269400;61;20397;-60
2021/10/24 09:05:47;0.00;0.00;0.62;0.00;0.00;0.62;4.40;2.27;;;21.30;26.80;;;;;;2270008;61;20570;-55
2021/10/24 09:08:35;0.00;0.00;0.62;0.00;0.00;0.62;3.70;2.37;;;21.30;26.80;;;;;;2269736;61;20731;-59
2021/10/24 09:11:23;0.00;0.00;0.62;0.00;0.00;0.62;3.70;2.20;;;21.30;26.80;;;;;;2269573;61;20360;-60
2021/10/24 09:14:09;0.00;0.00;0.62;0.00;0.00;0.62;4.30;2.20;;;21.40;26.80;;;;;;2269966;61;20450;-60
2021/10/24 09:16:53;0.00;0.00;0.62;0.00;0.00;0.62;3.60;2.60;;;21.40;26.80;;;;;;2269643;61;20352;-58
2021/10/24 09:19:41;0.00;0.00;0.62;0.00;0.00;0.62;2.80;2.20;;;21.50;26.80;;;;;;2269856;61;20421;-58
2021/10/24 09:22:28;0.00;0.00;0.62;0.00;0.00;0.62;3.30;2.07;;;21.50;26.80;;;;;;2270237;61;20735;-58
2021/10/24 09:25:15;0.00;0.00;0.62;0.00;0.00;0.62;4.43;2.50;;;21.50;26.70;;;;;;2269326;61;20402;-59
2021/10/24 09:28:03;0.00;0.00;0.62;0.00;0.00;0.62;6.90;2.60;;;21.50;26.70;;;;;;2270011;61;20429;-58
2021/10/24 09:30:58;0.00;0.00;0.62;0.00;0.00;0.62;4.37;2.27;;;21.60;26.70;;;;;;2269774;61;20388;-59
2021/10/24 09:33:45;0.00;0.00;0.62;0.00;0.00;0.62;4.30;3.07;;;21.70;26.70;;;;;;2269722;61;20388;-59
2021/10/24 09:36:30;0.00;0.00;0.62;0.00;0.00;0.62;6.37;3.00;;;21.70;26.60;;;;;;2270200;61;20363;-59
2021/10/24 09:39:48;0.00;0.00;0.62;0.00;0.00;0.62;3.00;2.20;;;21.80;26.70;;;;;;2268610;61;20393;-59
2021/10/24 09:42:32;0.00;0.00;0.62;0.00;0.00;0.62;4.00;2.40;;;21.80;26.60;;;;;;2270048;61;20360;-58
2021/10/24 09:45:18;0.00;0.00;0.62;0.00;0.00;0.62;4.87;3.03;;;21.80;26.50;;;;;;2269557;61;20444;-59
2021/10/24 09:48:09;0.00;0.00;0.62;0.00;0.00;0.62;3.90;2.50;;;21.90;26.60;;;;;;2268983;61;20376;-60
2021/10/24 09:50:56;0.00;0.00;0.62;0.00;0.00;0.62;3.00;2.17;;;21.90;26.60;;;;;;2269904;61;20379;-61
2021/10/24 09:53:44;0.00;0.00;0.62;0.00;0.00;0.62;4.90;2.40;;;22.00;26.60;;;;;;2268813;61;20460;-60
2021/10/24 09:56:28;0.00;0.00;0.62;0.00;0.00;0.62;4.40;2.10;;;22.00;26.50;;;;;;2269719;61;20810;-59
2021/10/24 09:59:16;0.00;0.00;0.62;0.00;0.00;0.62;7.17;2.80;;;22.10;26.60;;;;;;2270074;61;20751;-59
2021/10/24 10:02:02;0.00;0.00;0.62;0.00;0.00;0.62;3.17;2.40;;;22.10;26.60;;;;;;2269241;61;20356;-59
2021/10/24 10:04:47;0.00;0.00;0.62;0.00;0.00;0.62;4.13;2.73;;;22.20;26.70;;;;;;2270307;61;20585;-59
2021/10/24 10:07:32;0.00;0.00;0.62;0.00;0.00;0.62;5.83;2.83;;;22.20;26.70;;;;;;2269665;61;20514;-59
2021/10/24 10:10:17;0.00;0.00;0.62;0.00;0.00;0.62;3.83;2.10;;;22.30;26.70;;;;;;2269575;61;20418;-59
2021/10/24 10:13:09;0.00;0.00;0.62;0.00;0.00;0.62;2.87;2.17;;;22.30;26.80;;;;;;2270129;61;20402;-61
2021/10/24 10:15:55;0.00;0.00;0.62;0.00;0.00;0.62;3.20;1.73;;;22.40;26.90;;;;;;2268287;61;20368;-59
2021/10/24 10:19:29;0.00;0.00;0.62;0.00;0.00;0.62;2.80;2.10;;;22.40;26.80;;;;;;2269519;61;20372;-59
2021/10/24 10:22:27;0.00;0.00;0.62;0.00;0.00;0.62;3.10;2.30;;;22.40;26.90;;;;;;2269687;61;20368;-59
2021/10/24 10:25:12;0.00;0.00;0.62;0.00;0.00;0.62;3.83;2.17;;;22.50;27.00;;;;;;2269574;61;20357;-62
2021/10/24 10:27:57;0.00;0.00;0.62;0.00;0.00;0.62;2.83;2.20;;;22.60;27.10;;;;;;2269947;61;20372;-59
2021/10/24 10:30:43;0.00;0.00;0.62;0.00;0.00;0.62;2.87;2.17;;;22.60;27.10;;;;;;2267959;61;20376;-56
2021/10/24 10:33:32;0.00;0.00;0.62;0.00;0.00;0.62;3.40;2.10;;;22.70;27.20;;;;;;2269714;61;20353;-58
2021/10/24 10:36:18;0.00;0.00;0.62;0.00;0.00;0.62;4.33;1.93;;;22.80;27.30;;;;;;2269603;61;20402;-59
2021/10/24 10:39:37;0.00;0.00;0.62;0.00;0.00;0.62;3.07;1.77;;;22.80;27.30;;;;;;2268978;61;20384;-59
2021/10/24 10:42:57;0.00;0.00;0.62;0.00;0.00;0.62;3.17;1.90;;;22.90;27.30;;;;;;2270038;61;20376;-63
2021/10/24 10:45:47;0.00;0.00;0.62;0.00;0.00;0.62;2.73;1.50;;;23.00;27.40;;;;;;2268985;61;20357;-61
2021/10/24 10:48:41;0.00;0.00;0.62;0.00;0.00;0.62;3.63;2.10;;;23.00;27.40;;;;;;2269416;61;20387;-58
2021/10/24 10:51:31;0.00;0.00;0.62;0.00;0.00;0.62;2.67;1.93;;;23.10;27.50;;;;;;2269188;61;20785;-61
2021/10/24 10:54:19;0.00;0.00;0.62;0.00;0.00;0.62;3.10;1.93;;;23.10;27.40;;;;;;2269520;61;20420;-61
2021/10/24 10:57:24;0.00;0.00;0.62;0.00;0.00;0.62;3.67;1.67;;;23.20;27.50;;;;;;2270022;61;20827;-60
2021/10/24 11:00:34;0.00;0.00;0.62;0.00;0.00;0.62;5.00;1.50;;;23.30;27.50;;;;;;2269316;61;20383;-61
2021/10/24 11:03:46;0.00;0.00;0.62;0.00;0.00;0.62;2.70;1.60;;;23.40;27.60;;;;;;2269983;61;20364;-61
2021/10/24 11:06:58;0.00;0.00;0.62;0.00;0.00;0.62;2.10;1.53;;;23.50;27.60;;;;;;2269416;61;20364;-61